Arboga, California
Current Conditions -  °F | °C
As of 2:58 PM on Monday 24 Nov 2014 (Local Time) from KBAB Reporting Station
Haze Haze  
Wind Chill: 60°   Ceiling: Unl
Heat Index: 60°   Visibility: 6mi
Dew Point: 41°   Wind: 5mph
Humidity: 48%   Direction: NA
Pressure: 30.34"   Gusts: NA
Location:  39.0904°N, 121.552°W
Report Text: KBAB 242258Z AUTO VRB04KT 6SM HZ CLR 16/05 A3034 RMK AO2 SLP352 T01580049 $
Loading
Personal Weather Stations






























Interactive Weather Map New forecast layout! Learn more

10-Day Weather Forecast

Advertisements
Track Severe Weather on mobile